createdAt,value
2022-12-03T00:00:21.451Z,101765.92
2022-12-03T00:02:48.204Z,101767.70
2022-12-03T00:05:15.042Z,101768.80
2022-12-03T00:07:41.863Z,101772.65
2022-12-03T00:10:09.008Z,101772.59
2022-12-03T00:12:35.847Z,101773.89
2022-12-03T00:15:02.552Z,101776.64
2022-12-03T00:17:29.182Z,101776.79
2022-12-03T00:19:56.028Z,101776.77
2022-12-03T00:22:22.661Z,101776.42
2022-12-03T00:24:49.298Z,101779.34
2022-12-03T00:27:15.945Z,101777.73
2022-12-03T00:29:42.699Z,101779.88
2022-12-03T00:32:09.445Z,101777.98
2022-12-03T00:34:36.088Z,101781.50
2022-12-03T00:37:02.756Z,101784.80
2022-12-03T00:39:29.392Z,101782.68
2022-12-03T00:41:56.031Z,101783.73
2022-12-03T00:44:22.733Z,101784.42
2022-12-03T00:46:49.434Z,101779.88
2022-12-03T00:49:16.194Z,101783.00
2022-12-03T00:51:42.815Z,101783.34
2022-12-03T00:54:09.459Z,101786.68
2022-12-03T00:56:36.116Z,101786.02
2022-12-03T00:59:02.743Z,101784.69
2022-12-03T01:01:29.422Z,101781.05
2022-12-03T01:03:56.220Z,101785.24
2022-12-03T01:06:22.822Z,101788.59
2022-12-03T01:08:49.462Z,101783.05
2022-12-03T01:11:34.789Z,101784.64
2022-12-03T01:14:01.405Z,101785.73
2022-12-03T01:16:28.124Z,101789.13
2022-12-03T01:18:54.788Z,101789.02
2022-12-03T01:21:21.422Z,101789.73
2022-12-03T01:23:48.155Z,101788.50
2022-12-03T01:26:14.793Z,101788.02
2022-12-03T01:28:44.705Z,101794.17
2022-12-03T01:31:30.310Z,101793.65
2022-12-03T01:33:57.033Z,101795.02
2022-12-03T01:36:23.659Z,101796.95
2022-12-03T01:38:50.296Z,101797.83
2022-12-03T01:41:17.674Z,101803.79
2022-12-03T01:43:44.369Z,101803.80
2022-12-03T01:46:13.577Z,101802.02
2022-12-03T01:48:41.154Z,101800.46
2022-12-03T01:51:07.843Z,101804.16
2022-12-03T01:53:34.646Z,101802.98
2022-12-03T01:56:01.429Z,101801.45
2022-12-03T01:58:28.608Z,101803.73
2022-12-03T02:00:56.809Z,101802.61
2022-12-03T02:03:24.898Z,101803.13
2022-12-03T02:05:52.312Z,101806.28
2022-12-03T02:08:33.777Z,101810.84
2022-12-03T02:11:15.528Z,101808.61
2022-12-03T02:13:42.187Z,101809.70
2022-12-03T02:16:08.899Z,101810.93
2022-12-03T02:18:35.536Z,101813.02
2022-12-03T02:21:12.222Z,101817.88
2022-12-03T02:23:52.253Z,101817.50
2022-12-03T02:26:18.874Z,101817.46
2022-12-03T02:28:45.563Z,101821.15
2022-12-03T02:31:12.219Z,101819.42
2022-12-03T02:33:38.939Z,101817.34
2022-12-03T02:36:05.960Z,101818.58
2022-12-03T02:38:32.713Z,101815.60
2022-12-03T02:41:01.105Z,101820.14
2022-12-03T02:43:27.763Z,101821.23
2022-12-03T02:45:55.589Z,101824.23
2022-12-03T02:48:32.507Z,101822.35
2022-12-03T02:51:00.487Z,101824.10
2022-12-03T02:53:33.453Z,101822.90
2022-12-03T06:02:17.919Z,101941.81
2022-12-03T06:04:44.717Z,101949.27
2022-12-03T06:07:14.100Z,101955.27
2022-12-03T06:09:41.180Z,101955.18
2022-12-03T06:12:10.681Z,101955.96
2022-12-03T06:14:37.330Z,101961.42
2022-12-03T06:17:04.987Z,101964.31
2022-12-03T06:19:31.628Z,101966.83
2022-12-03T06:21:58.292Z,101966.05
2022-12-03T06:24:25.922Z,101964.21
2022-12-03T06:26:52.573Z,101964.17
2022-12-03T06:29:19.189Z,101969.85
2022-12-03T06:31:50.187Z,101970.84
2022-12-03T06:34:16.838Z,101974.10
2022-12-03T06:36:43.490Z,101978.76
2022-12-03T06:39:10.208Z,101979.39
2022-12-03T06:41:36.899Z,101980.04
2022-12-03T06:44:03.591Z,101981.38
2022-12-03T06:46:30.326Z,101987.48
2022-12-03T06:48:57.011Z,101992.36
2022-12-03T06:51:23.636Z,101994.10
2022-12-03T06:53:50.255Z,101992.53
2022-12-03T06:56:20.162Z,101997.55
2022-12-03T06:58:48.849Z,101999.29
2022-12-03T07:01:15.479Z,101998.35
2022-12-03T07:03:42.139Z,102002.14
2022-12-03T07:06:08.876Z,102006.73
2022-12-03T07:08:35.496Z,102004.13
2022-12-03T07:11:02.197Z,102004.27
2022-12-03T07:13:28.808Z,102005.34
2022-12-03T07:15:55.514Z,102000.77
2022-12-03T07:18:22.216Z,102003.88
2022-12-03T07:20:49.028Z,102005.23
2022-12-03T07:23:15.639Z,102008.71
2022-12-03T07:25:42.291Z,102007.02
2022-12-03T07:28:08.936Z,102010.22
2022-12-03T07:30:35.556Z,102011.66
2022-12-03T07:33:02.238Z,102013.27
2022-12-03T07:35:28.874Z,102013.08
2022-12-03T07:37:55.552Z,102017.24
2022-12-03T07:40:22.195Z,102014.25
2022-12-03T07:42:48.836Z,102016.88
2022-12-03T07:45:15.477Z,102022.83
2022-12-03T07:47:42.144Z,102027.58
2022-12-03T07:50:10.592Z,102029.34
2022-12-03T07:52:37.285Z,102033.52
2022-12-03T07:55:04.328Z,102035.84
2022-12-03T07:57:30.993Z,102037.59
2022-12-03T07:59:57.604Z,102037.23
2022-12-03T08:02:24.277Z,102038.98
2022-12-03T08:04:51.243Z,102041.27
2022-12-03T08:07:18.082Z,102041.84
2022-12-03T08:09:44.890Z,102043.46
2022-12-03T08:12:22.887Z,102046.27
2022-12-03T08:14:49.736Z,102049.55
2022-12-03T08:17:18.569Z,102045.67
2022-12-03T08:19:46.822Z,102043.53
2022-12-03T08:22:14.140Z,102047.38
2022-12-03T08:24:41.049Z,102048.78
2022-12-03T08:27:16.731Z,102046.71
2022-12-03T08:29:43.519Z,102051.61
2022-12-03T08:32:13.661Z,102048.11
2022-12-03T08:34:41.936Z,102049.64
2022-12-03T08:37:18.532Z,102049.82
2022-12-03T08:39:46.718Z,102049.98
2022-12-03T08:42:36.698Z,102047.40
2022-12-03T08:45:21.808Z,102049.77
2022-12-03T08:47:48.513Z,102052.02
2022-12-03T08:50:26.877Z,102049.20
2022-12-03T08:52:54.226Z,102044.48
2022-12-03T08:55:34.408Z,102042.86
2022-12-03T08:58:01.060Z,102044.81
2022-12-03T09:00:27.786Z,102047.09
2022-12-03T09:02:55.290Z,102052.16
2022-12-03T09:05:23.433Z,102044.64
2022-12-03T09:07:50.213Z,102049.31
2022-12-03T09:10:17.002Z,102044.99
2022-12-03T09:12:45.071Z,102047.78
2022-12-03T09:15:12.992Z,102046.27
2022-12-03T09:17:39.647Z,102046.49
2022-12-03T09:20:06.884Z,102048.45
2022-12-03T09:22:33.619Z,102047.63
2022-12-03T09:25:00.230Z,102047.65
2022-12-03T09:27:26.870Z,102046.20
2022-12-03T09:29:53.481Z,102048.96
2022-12-03T09:32:20.209Z,102048.77
2022-12-03T09:34:47.022Z,102048.45
2022-12-03T09:37:13.700Z,102045.71
2022-12-03T09:39:40.358Z,102046.61
2022-12-03T09:42:07.060Z,102045.98
2022-12-03T09:44:33.990Z,102050.05
2022-12-03T09:47:03.936Z,102052.36
2022-12-03T09:49:31.798Z,102053.48
2022-12-03T09:51:58.788Z,102060.36
2022-12-03T09:54:26.940Z,102064.70
2022-12-03T09:56:54.494Z,102068.21
2022-12-03T09:59:21.186Z,102070.13
2022-12-03T10:01:48.108Z,102073.24
2022-12-03T10:04:14.965Z,102073.79
2022-12-03T10:06:45.802Z,102073.33
2022-12-03T10:09:14.530Z,102075.86
2022-12-03T10:11:41.196Z,102072.60
2022-12-03T10:14:11.500Z,102072.11
2022-12-03T10:16:40.195Z,102076.50
2022-12-03T10:19:09.501Z,102077.58
2022-12-03T10:21:36.836Z,102074.05
2022-12-03T10:24:25.955Z,102074.72
2022-12-03T10:26:54.539Z,102076.42
2022-12-03T10:29:25.851Z,102073.60
2022-12-03T10:31:58.247Z,102073.92
2022-12-03T10:34:26.376Z,102073.88
2022-12-03T10:37:11.852Z,102070.71
2022-12-03T10:40:00.643Z,102073.64
2022-12-03T10:42:29.138Z,102069.72
2022-12-03T10:45:16.662Z,102073.61
2022-12-03T10:47:44.599Z,102069.90
2022-12-03T10:50:16.958Z,102069.36
2022-12-03T10:52:43.876Z,102072.34
2022-12-03T10:55:12.773Z,102071.52
2022-12-03T10:57:45.048Z,102074.31
2022-12-03T11:00:19.402Z,102076.94
2022-12-03T11:02:51.684Z,102079.41
2022-12-03T15:23:36.402Z,102253.02
2022-12-03T15:26:03.407Z,102258.05
2022-12-03T15:28:30.063Z,102255.60
2022-12-03T15:30:56.775Z,102256.47
2022-12-03T15:33:23.508Z,102260.44
2022-12-03T15:35:50.111Z,102267.03
2022-12-03T15:38:16.911Z,102267.88
2022-12-03T15:40:43.658Z,102269.58
2022-12-03T15:43:10.276Z,102273.20
2022-12-03T15:45:37.168Z,102270.02
2022-12-03T15:48:03.995Z,102266.52
2022-12-03T15:50:33.523Z,102266.33
2022-12-03T15:53:02.359Z,102274.13
2022-12-03T15:55:29.037Z,102274.80
2022-12-03T15:57:55.676Z,102272.88
2022-12-03T16:00:22.433Z,102268.84
2022-12-03T16:02:52.717Z,102272.98
2022-12-03T16:05:19.845Z,102271.40
2022-12-03T16:07:46.543Z,102270.70
2022-12-03T16:10:13.354Z,102271.39
2022-12-03T16:12:40.080Z,102272.73
2022-12-03T16:15:07.049Z,102274.97
2022-12-03T16:17:33.932Z,102280.16
2022-12-03T16:20:00.623Z,102280.34
2022-12-03T16:22:27.255Z,102279.46
2022-12-03T16:24:53.881Z,102281.02
2022-12-03T16:27:25.312Z,102281.54
2022-12-03T16:29:52.767Z,102279.98
2022-12-03T16:32:19.781Z,102280.68
2022-12-03T16:34:46.411Z,102283.13
2022-12-03T16:37:13.160Z,102279.11
2022-12-03T16:39:46.982Z,102286.94
2022-12-03T16:42:17.243Z,102283.61
2022-12-03T16:44:59.505Z,102282.89
2022-12-03T16:47:32.075Z,102281.49
2022-12-03T16:50:01.106Z,102283.25
2022-12-03T16:52:27.880Z,102283.95
2022-12-03T16:54:54.489Z,102286.58
2022-12-03T16:57:21.130Z,102281.86
2022-12-03T16:59:47.795Z,102295.78
2022-12-03T17:02:14.545Z,102300.33
2022-12-03T17:04:41.317Z,102299.11
2022-12-03T17:07:07.993Z,102299.80
2022-12-03T17:09:34.641Z,102304.52
2022-12-03T17:12:01.477Z,102300.86
2022-12-03T17:14:33.025Z,102301.91
2022-12-03T17:17:00.204Z,102300.52
2022-12-03T17:19:26.972Z,102304.01
2022-12-03T17:21:54.251Z,102309.91
2022-12-03T17:24:21.544Z,102309.55
2022-12-03T17:26:48.271Z,102308.86
2022-12-03T17:29:14.929Z,102308.19
2022-12-03T17:31:42.727Z,102313.76
2022-12-03T17:34:09.882Z,102316.73
2022-12-03T17:36:36.538Z,102320.21
2022-12-03T17:39:03.374Z,102321.98
2022-12-03T17:41:30.082Z,102322.34
2022-12-03T17:43:56.790Z,102324.96
2022-12-03T17:46:23.505Z,102323.05
2022-12-03T17:48:50.291Z,102328.48
2022-12-03T17:51:17.135Z,102328.66
2022-12-03T17:53:43.850Z,102330.05
2022-12-03T17:56:10.569Z,102333.54
2022-12-03T17:58:37.216Z,102338.08
2022-12-03T18:01:05.461Z,102340.02
2022-12-03T18:03:32.314Z,102344.71
2022-12-03T18:05:59.100Z,102345.75
2022-12-03T18:08:25.717Z,102345.92
2022-12-03T18:10:52.341Z,102348.88
2022-12-03T18:13:18.983Z,102349.75
2022-12-03T18:15:45.648Z,102353.22
2022-12-03T18:18:12.284Z,102356.38
2022-12-03T18:20:38.896Z,102358.66
2022-12-03T18:23:05.586Z,102357.96
2022-12-03T18:25:32.859Z,102357.25
2022-12-03T18:27:59.571Z,102356.23
